createdAt,value
2019-02-16T00:00:28.253Z,6.53
2019-02-16T00:02:56.841Z,6.50
2019-02-16T00:05:25.390Z,6.45
2019-02-16T00:07:53.933Z,6.30
2019-02-16T00:10:22.542Z,8.93
2019-02-16T00:12:51.110Z,6.12
2019-02-16T00:15:19.663Z,7.47
2019-02-16T00:17:48.245Z,7.97
2019-02-16T00:20:16.794Z,6.45
2019-02-16T00:22:45.341Z,6.45
2019-02-16T00:25:13.920Z,9.88
2019-02-16T00:27:42.499Z,8.80
2019-02-16T00:30:11.094Z,8.30
2019-02-16T00:32:39.645Z,5.72
2019-02-16T00:35:08.219Z,10.75
2019-02-16T00:37:36.835Z,7.45
2019-02-16T00:40:05.629Z,8.55
2019-02-16T00:42:34.181Z,9.13
2019-02-16T00:45:02.758Z,10.23
2019-02-16T00:47:31.342Z,8.68
2019-02-16T00:49:59.899Z,7.22
2019-02-16T00:52:28.455Z,9.05
2019-02-16T00:54:57.022Z,8.80
2019-02-16T00:57:25.610Z,6.67
2019-02-16T00:59:54.158Z,7.05
2019-02-16T01:02:22.714Z,7.78
2019-02-16T01:04:51.284Z,9.20
2019-02-16T01:07:19.842Z,7.15
2019-02-16T01:09:48.414Z,11.00
2019-02-16T01:12:16.965Z,7.08
2019-02-16T01:14:45.538Z,7.65
2019-02-16T01:17:14.118Z,8.70
2019-02-16T01:19:42.663Z,7.83
2019-02-16T01:22:11.241Z,7.42
2019-02-16T01:24:39.786Z,8.48
2019-02-16T01:27:08.332Z,9.40
2019-02-16T01:29:36.919Z,6.87
2019-02-16T01:32:05.461Z,8.35
2019-02-16T01:34:34.014Z,11.00
2019-02-16T01:37:02.583Z,8.58
2019-02-16T01:39:31.186Z,8.80
2019-02-16T01:41:59.745Z,12.40
2019-02-16T01:44:28.303Z,9.18
2019-02-16T01:46:56.883Z,10.50
2019-02-16T01:49:25.456Z,7.53
2019-02-16T01:51:53.984Z,8.50
2019-02-16T01:54:22.568Z,8.90
2019-02-16T01:56:51.920Z,11.90
2019-02-16T01:59:20.953Z,9.60
2019-02-16T02:01:50.461Z,7.15
2019-02-16T02:04:20.195Z,9.40
2019-02-16T02:06:49.508Z,7.87
2019-02-16T02:09:19.235Z,10.78
2019-02-16T02:11:48.515Z,10.30
2019-02-16T02:14:17.150Z,8.60
2019-02-16T02:16:45.730Z,10.10
2019-02-16T02:19:14.398Z,8.18
2019-02-16T02:21:42.886Z,10.85
2019-02-16T02:24:11.426Z,8.98
2019-02-16T02:26:40.320Z,7.90
2019-02-16T02:29:08.868Z,12.93
2019-02-16T02:31:37.709Z,10.98
2019-02-16T02:34:06.383Z,8.85
2019-02-16T02:36:35.008Z,9.68
2019-02-16T02:39:04.421Z,10.30
2019-02-16T02:41:33.030Z,6.97
2019-02-16T02:44:01.580Z,8.80
2019-02-16T02:46:30.127Z,9.78
2019-02-16T02:48:58.715Z,8.43
2019-02-16T02:51:27.346Z,7.72
2019-02-16T02:53:55.892Z,8.43
2019-02-16T02:56:24.473Z,11.33
2019-02-16T02:58:53.334Z,12.35
2019-02-16T03:01:21.904Z,9.60
2019-02-16T03:03:50.532Z,11.63
2019-02-16T03:06:19.503Z,17.05
2019-02-16T03:08:48.057Z,10.65
2019-02-16T03:11:16.948Z,13.38
2019-02-16T03:13:45.539Z,9.23
2019-02-16T03:16:14.419Z,13.18
2019-02-16T03:18:43.313Z,14.35
2019-02-16T03:21:11.900Z,8.93
2019-02-16T03:23:40.471Z,8.78
2019-02-16T03:26:16.270Z,9.75
2019-02-16T03:29:04.938Z,9.85
2019-02-16T03:31:56.135Z,10.70
2019-02-16T03:34:31.735Z,9.98
2019-02-16T03:37:21.052Z,9.58
2019-02-16T03:39:49.598Z,10.35
2019-02-16T03:42:18.152Z,10.98
2019-02-16T03:44:46.726Z,9.65
2019-02-16T03:47:15.275Z,8.85
2019-02-16T03:49:43.895Z,10.68
2019-02-16T03:52:14.124Z,12.95
2019-02-16T03:54:42.721Z,9.43
2019-02-16T03:57:11.357Z,9.78
2019-02-16T03:59:39.904Z,12.90
2019-02-16T04:02:08.454Z,9.88
2019-02-16T04:04:37.040Z,12.90
2019-02-16T04:07:05.589Z,13.60
2019-02-16T04:09:34.145Z,10.60
2019-02-16T04:12:02.723Z,8.90
2019-02-16T04:14:31.536Z,9.60
2019-02-16T04:17:00.128Z,9.53
2019-02-16T04:19:28.744Z,12.73
2019-02-16T04:21:57.292Z,10.03
2019-02-16T04:24:25.841Z,9.88
2019-02-16T04:26:54.416Z,9.15
2019-02-16T04:29:22.964Z,13.22
2019-02-16T04:31:51.561Z,11.97
2019-02-16T04:34:20.114Z,10.88
2019-02-16T04:36:48.672Z,10.10
2019-02-16T04:39:17.255Z,10.90
2019-02-16T04:41:45.808Z,9.05
2019-02-16T04:44:14.357Z,10.90
2019-02-16T04:46:42.970Z,10.20
2019-02-16T04:49:11.521Z,16.70
2019-02-16T04:51:40.103Z,14.53
2019-02-16T04:54:08.661Z,10.03
2019-02-16T04:56:37.244Z,11.15
2019-02-16T04:59:05.805Z,10.60
2019-02-16T05:01:34.378Z,9.70
2019-02-16T05:04:02.924Z,10.32
2019-02-16T05:06:31.470Z,8.95
2019-02-16T05:09:00.062Z,10.45
2019-02-16T05:11:28.968Z,10.03
2019-02-16T05:13:57.519Z,13.75
2019-02-16T05:16:26.101Z,9.20
2019-02-16T05:18:54.720Z,11.75
2019-02-16T05:21:23.262Z,16.17
2019-02-16T05:23:51.845Z,7.65
2019-02-16T05:26:20.392Z,11.65
2019-02-16T05:28:48.935Z,9.18
2019-02-16T05:31:17.520Z,9.08
2019-02-16T05:33:46.085Z,8.58
2019-02-16T05:36:14.642Z,9.90
2019-02-16T05:38:43.230Z,11.95
2019-02-16T05:41:11.784Z,12.70
2019-02-16T05:43:40.346Z,11.20
2019-02-16T05:46:08.921Z,10.43
2019-02-16T05:48:37.464Z,8.88
2019-02-16T05:51:06.052Z,10.18
2019-02-16T05:53:34.601Z,16.15
2019-02-16T05:56:03.180Z,10.18
2019-02-16T05:58:31.722Z,9.23
2019-02-16T06:01:00.274Z,10.43
2019-02-16T06:03:28.873Z,11.28
2019-02-16T06:05:57.432Z,10.98
2019-02-16T06:08:25.980Z,11.40
2019-02-16T06:10:54.648Z,13.32
2019-02-16T06:13:23.209Z,8.73
2019-02-16T06:15:51.757Z,7.50
2019-02-16T06:18:20.336Z,8.20
2019-02-16T06:20:48.917Z,10.65
2019-02-16T06:23:17.538Z,8.85
2019-02-16T06:25:46.115Z,9.43
2019-02-16T06:28:14.674Z,12.75
2019-02-16T06:30:43.241Z,9.83
2019-02-16T06:33:11.794Z,8.18
2019-02-16T06:36:05.267Z,9.43
2019-02-16T06:38:33.820Z,11.22
2019-02-16T06:41:02.363Z,11.03
2019-02-16T06:43:31.139Z,10.60
2019-02-16T06:46:00.897Z,10.15
2019-02-16T06:48:29.671Z,16.10
2019-02-16T06:50:58.217Z,12.23
2019-02-16T06:53:26.782Z,8.85
2019-02-16T06:56:05.183Z,11.03
2019-02-16T06:58:33.764Z,8.65
2019-02-16T07:01:02.319Z,13.10
2019-02-16T07:03:30.902Z,8.10
2019-02-16T07:05:59.444Z,12.00
2019-02-16T07:08:27.991Z,11.00
2019-02-16T07:10:56.605Z,15.25
2019-02-16T07:13:35.177Z,12.73
2019-02-16T07:16:36.794Z,28.02
2019-02-16T07:19:18.601Z,17.90
2019-02-16T07:21:47.186Z,15.88
2019-02-16T07:24:15.726Z,17.80
2019-02-16T07:26:44.329Z,19.55
2019-02-16T07:29:12.872Z,24.80
2019-02-16T07:31:41.444Z,17.60
2019-02-16T07:34:10.026Z,15.58
2019-02-16T07:36:38.569Z,11.00
2019-02-16T07:39:08.118Z,11.45
2019-02-16T07:41:36.729Z,19.98
2019-02-16T07:44:30.500Z,26.33
2019-02-16T07:50:10.357Z,16.70
2019-02-16T07:53:09.915Z,8.88
2019-02-16T07:55:59.406Z,11.28
2019-02-16T07:58:32.639Z,13.32
2019-02-16T08:03:50.904Z,9.93
2019-02-16T08:06:53.933Z,18.40
2019-02-16T08:09:44.393Z,13.90
2019-02-16T08:12:26.144Z,13.98
2019-02-16T08:15:14.297Z,12.33
2019-02-16T08:17:59.568Z,11.75
2019-02-16T08:20:35.779Z,12.25
2019-02-16T08:23:23.375Z,12.07
2019-02-16T08:26:04.883Z,19.37
2019-02-16T08:28:39.681Z,11.85
2019-02-16T08:31:14.036Z,11.10
2019-02-16T08:33:48.116Z,12.60
2019-02-16T08:36:34.335Z,12.68
2019-02-16T08:39:09.958Z,7.80
2019-02-16T08:41:49.550Z,12.15
2019-02-16T08:44:46.094Z,9.93
2019-02-16T08:47:36.487Z,7.92
2019-02-16T08:50:23.242Z,7.00
2019-02-16T08:53:29.293Z,7.75
2019-02-16T08:56:15.303Z,9.98
2019-02-16T08:58:53.856Z,8.28
2019-02-16T09:01:40.519Z,9.75
2019-02-16T09:04:19.500Z,9.08
2019-02-16T09:06:53.882Z,7.90
2019-02-16T09:09:40.471Z,9.55
2019-02-16T09:12:21.876Z,7.72
2019-02-16T09:15:08.164Z,11.43
2019-02-16T09:18:11.096Z,10.00
2019-02-16T09:20:58.682Z,9.35
2019-02-16T09:23:42.899Z,9.08
2019-02-16T09:26:18.902Z,8.53
2019-02-16T09:28:57.873Z,15.32
2019-02-16T09:31:45.938Z,10.45
2019-02-16T09:34:26.779Z,9.38
2019-02-16T09:37:29.238Z,11.35
2019-02-16T09:40:31.997Z,8.98
2019-02-16T09:43:10.941Z,9.53
2019-02-16T09:45:55.016Z,10.45
2019-02-16T09:48:28.722Z,9.73
2019-02-16T09:51:15.204Z,8.40
2019-02-16T09:53:53.143Z,8.43
2019-02-16T09:56:41.146Z,9.20
2019-02-16T09:59:28.781Z,9.33
2019-02-16T10:02:15.381Z,11.00
2019-02-16T10:05:05.493Z,7.60
2019-02-16T10:07:53.053Z,6.58
2019-02-16T10:10:43.942Z,8.00
2019-02-16T10:13:22.854Z,8.88
2019-02-16T10:16:08.770Z,7.30
2019-02-16T10:18:54.984Z,7.87
2019-02-16T10:21:43.402Z,12.30
2019-02-16T10:24:30.014Z,9.15
2019-02-16T10:27:16.584Z,13.60
2019-02-16T10:30:16.410Z,10.32
2019-02-16T10:33:07.656Z,9.05
2019-02-16T10:35:48.796Z,9.05
2019-02-16T10:38:25.113Z,12.65
2019-02-16T10:41:09.726Z,9.60
2019-02-16T10:44:15.767Z,8.10
2019-02-16T10:46:53.485Z,7.25
2019-02-16T10:49:31.014Z,7.55
2019-02-16T10:52:21.761Z,9.18
2019-02-16T10:55:10.364Z,9.33
2019-02-16T10:57:56.611Z,7.45
2019-02-16T11:00:43.385Z,8.28
2019-02-16T11:03:25.582Z,11.50
2019-02-16T11:06:03.691Z,7.08
2019-02-16T11:08:42.816Z,7.62
2019-02-16T11:11:21.551Z,9.20
2019-02-16T11:14:02.697Z,8.53
2019-02-16T11:16:48.516Z,6.97
2019-02-16T11:19:34.792Z,6.90
2019-02-16T11:22:09.640Z,7.92
2019-02-16T11:24:55.643Z,12.33
2019-02-16T11:27:46.109Z,10.35
2019-02-16T11:30:24.548Z,10.93
2019-02-16T11:33:04.370Z,9.03
2019-02-16T11:35:45.275Z,9.30
2019-02-16T11:38:23.449Z,7.20
2019-02-16T11:41:08.857Z,8.28
2019-02-16T11:43:52.598Z,15.60
2019-02-16T11:46:58.688Z,11.10
2019-02-16T11:49:46.984Z,12.25
2019-02-16T11:52:35.169Z,9.70
2019-02-16T11:55:36.014Z,9.18
2019-02-16T11:58:29.513Z,13.30
2019-02-16T12:04:02.581Z,8.55
2019-02-16T12:06:35.785Z,8.65
2019-02-16T12:09:30.428Z,7.78
2019-02-16T12:12:18.030Z,8.55
2019-02-16T12:14:56.992Z,9.28
2019-02-16T12:17:47.008Z,8.80
2019-02-16T12:20:33.421Z,10.10
2019-02-16T12:23:06.299Z,9.00
2019-02-16T12:26:09.058Z,9.25
2019-02-16T12:28:55.804Z,9.13
2019-02-16T12:31:34.598Z,10.53
2019-02-16T12:34:16.127Z,32.53
2019-02-16T12:37:12.688Z,10.75
2019-02-16T12:39:46.865Z,9.70
2019-02-16T12:42:33.035Z,8.25
2019-02-16T12:45:14.872Z,11.03
2019-02-16T12:47:50.481Z,12.78
2019-02-16T12:50:34.034Z,11.28
2019-02-16T12:53:37.037Z,11.38
2019-02-16T12:56:24.067Z,12.53
2019-02-16T12:59:00.180Z,11.18
2019-02-16T13:02:06.192Z,11.05
2019-02-16T13:04:53.763Z,11.83
2019-02-16T13:07:30.794Z,12.33
2019-02-16T13:10:18.752Z,13.65
2019-02-16T13:13:09.191Z,11.83
2019-02-16T13:16:05.965Z,11.85
2019-02-16T13:18:42.282Z,16.32
2019-02-16T13:21:21.542Z,10.75
2019-02-16T13:24:04.120Z,12.28
2019-02-16T13:26:50.477Z,11.40
2019-02-16T13:29:37.177Z,12.37
2019-02-16T13:32:16.508Z,12.47
2019-02-16T13:34:57.404Z,13.38
2019-02-16T13:37:50.960Z,12.82
2019-02-16T13:43:16.206Z,11.60
2019-02-16T13:45:52.473Z,12.65
2019-02-16T13:48:55.226Z,13.45
2019-02-16T13:51:58.201Z,12.53
2019-02-16T13:54:48.378Z,12.43
2019-02-16T13:57:31.255Z,17.82
2019-02-16T14:00:08.214Z,13.72
2019-02-16T14:02:53.214Z,14.85
2019-02-16T14:05:30.255Z,13.30
2019-02-16T14:08:20.947Z,12.88
2019-02-16T14:11:14.076Z,13.93
2019-02-16T14:13:51.924Z,12.58
2019-02-16T14:16:38.399Z,12.65
2019-02-16T14:19:06.957Z,13.08
2019-02-16T14:21:35.536Z,13.88
2019-02-16T14:24:04.157Z,11.93
2019-02-16T14:26:32.730Z,13.80
2019-02-16T14:29:01.290Z,13.62
2019-02-16T14:31:29.894Z,12.85
2019-02-16T14:33:58.445Z,13.80
2019-02-16T14:36:27.015Z,14.20
2019-02-16T14:39:13.270Z,17.65
2019-02-16T14:41:41.817Z,13.00
2019-02-16T14:44:10.375Z,15.40
2019-02-16T14:46:38.978Z,13.43
2019-02-16T14:49:07.595Z,12.70
2019-02-16T14:51:36.150Z,13.28
2019-02-16T14:54:04.736Z,13.40
2019-02-16T14:56:33.287Z,10.93
2019-02-16T14:59:01.919Z,13.13
2019-02-16T15:01:30.464Z,13.30
2019-02-16T15:03:59.021Z,13.50
2019-02-16T15:06:27.611Z,15.40
2019-02-16T15:08:56.199Z,13.85
2019-02-16T15:11:24.754Z,13.32
2019-02-16T15:13:53.309Z,14.78
2019-02-16T15:16:21.890Z,13.65
2019-02-16T15:18:50.439Z,22.77
2019-02-16T15:21:19.043Z,22.87
2019-02-16T15:23:47.631Z,16.10
2019-02-16T15:26:16.186Z,20.57
2019-02-16T15:28:44.793Z,18.20
2019-02-16T15:31:13.380Z,14.98
2019-02-16T15:33:41.950Z,16.80
2019-02-16T15:36:10.549Z,12.95
2019-02-16T15:38:39.109Z,15.83
2019-02-16T15:41:07.667Z,14.87
2019-02-16T15:43:36.266Z,15.95
2019-02-16T15:46:04.855Z,18.10
2019-02-16T15:48:33.429Z,11.12
2019-02-16T15:51:02.023Z,19.45
2019-02-16T15:53:30.916Z,16.52
2019-02-16T15:55:59.469Z,13.90
2019-02-16T15:58:28.077Z,11.35
2019-02-16T16:00:56.657Z,12.10
2019-02-16T16:03:25.629Z,10.93
2019-02-16T16:05:54.606Z,22.05
2019-02-16T16:08:48.298Z,24.23
2019-02-16T16:11:48.212Z,20.48
2019-02-16T16:14:27.446Z,13.03
2019-02-16T16:17:18.161Z,17.85
2019-02-16T16:20:08.535Z,16.25
2019-02-16T16:22:56.127Z,14.78
2019-02-16T16:25:46.268Z,15.23
2019-02-16T16:28:32.844Z,20.55
2019-02-16T16:31:21.414Z,20.57
2019-02-16T16:34:11.856Z,19.35
2019-02-16T16:37:11.965Z,25.65
2019-02-16T16:39:58.310Z,25.68
2019-02-16T16:42:46.392Z,35.38
2019-02-16T16:45:33.907Z,27.80
2019-02-16T16:48:20.340Z,31.10
2019-02-16T16:51:07.948Z,31.75
2019-02-16T16:54:07.932Z,31.90
2019-02-16T16:56:58.345Z,24.23
2019-02-16T16:59:45.933Z,34.65
2019-02-16T17:02:45.819Z,29.95
2019-02-16T17:05:39.494Z,30.52
2019-02-16T17:08:26.294Z,35.43
2019-02-16T17:11:17.070Z,32.00
2019-02-16T17:14:16.802Z,25.32
2019-02-16T17:16:59.331Z,23.40
2019-02-16T17:19:37.237Z,26.68
2019-02-16T17:22:14.595Z,28.05
2019-02-16T17:25:05.363Z,33.40
2019-02-16T17:27:47.809Z,23.87
2019-02-16T17:30:29.940Z,29.92
2019-02-16T17:33:23.082Z,31.68
2019-02-16T17:35:57.435Z,35.13
2019-02-16T17:38:41.852Z,36.00
2019-02-16T17:41:22.242Z,40.65
2019-02-16T17:43:56.738Z,30.68
2019-02-16T17:46:41.219Z,33.00
2019-02-16T17:49:33.362Z,38.60
2019-02-16T17:52:20.042Z,27.82
2019-02-16T17:55:06.496Z,28.20
2019-02-16T17:57:43.229Z,35.98
2019-02-16T18:00:40.270Z,31.33
2019-02-16T18:03:26.520Z,33.10
2019-02-16T18:06:06.014Z,30.27
2019-02-16T18:09:02.493Z,27.02
2019-02-16T18:11:41.406Z,31.82
2019-02-16T18:14:29.012Z,29.63
2019-02-16T18:17:17.570Z,29.75
2019-02-16T18:20:05.162Z,27.98
2019-02-16T18:22:48.443Z,32.63
2019-02-16T18:25:36.070Z,28.47
2019-02-16T18:28:28.012Z,26.23
2019-02-16T18:31:19.413Z,45.40
2019-02-16T18:34:07.001Z,36.60
2019-02-16T18:36:54.572Z,27.50
2019-02-16T18:39:42.236Z,29.63
2019-02-16T18:42:28.310Z,27.85
2019-02-16T18:45:14.686Z,28.83
2019-02-16T18:48:06.008Z,31.42
2019-02-16T18:51:05.840Z,37.13
2019-02-16T18:53:56.213Z,28.70
2019-02-16T18:56:42.783Z,26.25
2019-02-16T18:59:28.285Z,30.88
2019-02-16T19:02:05.132Z,28.70
2019-02-16T19:04:58.819Z,28.17
2019-02-16T19:07:41.607Z,29.92
2019-02-16T19:10:44.622Z,26.40
2019-02-16T19:13:32.247Z,28.52
2019-02-16T19:16:32.210Z,30.08
2019-02-16T19:19:18.664Z,30.32
2019-02-16T19:22:03.872Z,30.72
2019-02-16T19:24:39.585Z,33.02
2019-02-16T19:27:16.894Z,26.37
2019-02-16T19:29:56.693Z,32.42
2019-02-16T19:32:41.182Z,33.25
2019-02-16T19:35:38.253Z,30.77
2019-02-16T19:38:16.922Z,32.33
2019-02-16T19:41:07.314Z,32.28
2019-02-16T19:43:54.897Z,28.87
2019-02-16T19:46:45.688Z,30.55
2019-02-16T19:49:36.438Z,35.23
2019-02-16T19:52:27.416Z,33.70
2019-02-16T19:55:14.143Z,33.15
2019-02-16T19:57:53.954Z,31.30
2019-02-16T20:00:34.826Z,31.80
2019-02-16T20:03:17.714Z,35.58
2019-02-16T20:06:08.209Z,41.92
2019-02-16T20:08:45.710Z,39.78
2019-02-16T20:11:32.857Z,49.65
2019-02-16T20:14:26.477Z,50.35
2019-02-16T20:17:16.513Z,49.27
2019-02-16T20:19:52.587Z,35.23
2019-02-16T20:22:45.990Z,41.65
2019-02-16T20:25:49.021Z,41.15
2019-02-16T20:28:37.972Z,42.23
2019-02-16T20:31:28.914Z,46.20
2019-02-16T20:34:09.441Z,43.65
2019-02-16T20:37:03.215Z,39.18
2019-02-16T20:42:31.424Z,33.73
2019-02-16T20:45:12.703Z,39.65
2019-02-16T20:48:06.393Z,48.42
2019-02-16T20:51:00.557Z,49.83
2019-02-16T20:53:48.402Z,44.27
2019-02-16T20:56:21.812Z,45.73
2019-02-16T20:59:08.318Z,49.15
2019-02-16T21:01:44.589Z,43.08
2019-02-16T21:04:41.277Z,54.20
2019-02-16T21:07:27.792Z,42.10
2019-02-16T21:10:10.441Z,35.48
2019-02-16T21:12:58.004Z,40.78
2019-02-16T21:15:40.494Z,39.78
2019-02-16T21:18:28.089Z,38.00
2019-02-16T21:21:06.437Z,40.70
2019-02-16T21:24:00.205Z,43.13
2019-02-16T21:29:20.626Z,35.88
2019-02-16T21:32:01.568Z,42.40
2019-02-16T21:34:38.379Z,53.13
2019-02-16T21:37:34.807Z,43.45
2019-02-16T21:40:13.249Z,44.53
2019-02-16T21:42:50.589Z,39.45
2019-02-16T21:45:27.405Z,42.48
2019-02-16T21:48:08.650Z,51.68
2019-02-16T21:50:50.784Z,43.70
2019-02-16T21:53:38.730Z,37.83
2019-02-16T21:56:20.414Z,43.33
2019-02-16T21:59:07.711Z,45.03
2019-02-16T22:01:56.670Z,43.58
2019-02-16T22:04:30.909Z,42.35
2019-02-16T22:07:18.481Z,44.33
2019-02-16T22:10:02.706Z,48.48
2019-02-16T22:12:50.272Z,46.92
2019-02-16T22:15:18.869Z,41.90
2019-02-16T22:17:47.433Z,39.88
2019-02-16T22:20:15.990Z,41.92
2019-02-16T22:22:44.599Z,51.80
2019-02-16T22:25:13.165Z,47.33
2019-02-16T22:27:41.729Z,51.95
2019-02-16T22:30:10.669Z,48.25
2019-02-16T22:32:39.214Z,58.85
2019-02-16T22:35:08.170Z,47.73
2019-02-16T22:37:36.721Z,42.67
2019-02-16T22:40:05.497Z,46.55
2019-02-16T22:42:34.086Z,47.40
2019-02-16T22:45:02.709Z,45.55
2019-02-16T22:47:31.265Z,44.60
2019-02-16T22:49:59.839Z,38.98
2019-02-16T22:52:28.421Z,47.73
2019-02-16T22:54:57.011Z,48.55
2019-02-16T22:57:26.220Z,42.85
2019-02-16T22:59:54.776Z,51.95
2019-02-16T23:02:23.350Z,49.60
2019-02-16T23:04:51.899Z,48.60
2019-02-16T23:07:20.478Z,50.43
2019-02-16T23:09:49.026Z,46.98
2019-02-16T23:12:17.618Z,51.18
2019-02-16T23:14:46.507Z,44.63
2019-02-16T23:17:15.063Z,51.60
2019-02-16T23:19:43.641Z,62.10
2019-02-16T23:22:12.216Z,50.73
2019-02-16T23:24:40.809Z,52.50
2019-02-16T23:27:09.381Z,46.42
2019-02-16T23:29:37.955Z,55.30
2019-02-16T23:32:06.556Z,51.60
2019-02-16T23:34:35.103Z,52.00
2019-02-16T23:37:03.657Z,49.53
2019-02-16T23:39:32.245Z,57.85
2019-02-16T23:42:00.801Z,48.87
2019-02-16T23:44:29.354Z,51.28
2019-02-16T23:46:57.963Z,57.08
2019-02-16T23:49:26.524Z,42.45
2019-02-16T23:51:55.120Z,52.78
2019-02-16T23:54:23.672Z,52.17
2019-02-16T23:56:52.229Z,47.67
2019-02-16T23:59:20.818Z,45.90
